Time;durP1;ratioP1;P1;durP2;ratioP2;P2;SDS_P1;SDS_P2;PMS_P1;PMS_P2;Temp;Humidity;BMP_temperature;BMP_pressure;BME280_temperature;BME280_humidity;BME280_pressure;Samples;Min_cycle;Max_cycle;Signal;HPM_P1;HPM_P2
2021/04/12 00:02:34;;;;;;;14.52;5.65;;;12.30;90.10;;;;;;5033432;28;20025;-69
2021/04/12 00:05:12;;;;;;;18.35;6.70;;;12.30;90.00;;;;;;5013859;28;20108;-70
2021/04/12 00:07:58;;;;;;;10.20;5.03;;;12.30;90.10;;;;;;5013695;28;20033;-70
2021/04/12 00:10:48;;;;;;;14.98;5.68;;;12.20;90.00;;;;;;5013646;28;20030;-70
2021/04/12 00:13:35;;;;;;;19.17;6.18;;;12.30;90.10;;;;;;5013737;28;20022;-70
2021/04/12 00:16:18;;;;;;;15.70;5.85;;;12.30;90.20;;;;;;5014146;28;20453;-70
2021/04/12 00:18:55;;;;;;;;;;;12.30;90.20;;;;;;5012884;28;20196;-69
2021/04/12 00:21:54;;;;;;;19.77;6.10;;;12.20;90.10;;;;;;5013475;28;20201;-69
2021/04/12 00:24:44;;;;;;;18.02;6.38;;;12.30;90.10;;;;;;5013742;28;20032;-70
2021/04/12 00:27:36;;;;;;;21.08;5.57;;;12.30;90.00;;;;;;5012206;28;20041;-69
2021/04/12 00:30:23;;;;;;;19.33;6.20;;;12.30;90.00;;;;;;5010807;28;20030;-69
2021/04/12 00:32:59;;;;;;;23.90;6.47;;;12.30;90.00;;;;;;5012007;28;20036;-69
2021/04/12 00:35:33;;;;;;;17.50;6.60;;;12.30;90.20;;;;;;5013515;28;20026;-69
2021/04/12 00:38:14;;;;;;;13.23;5.63;;;12.30;90.20;;;;;;5013088;28;20038;-69
2021/04/12 00:41:05;;;;;;;19.92;5.95;;;12.30;90.20;;;;;;5012557;28;20029;-69
2021/04/12 00:44:02;;;;;;;14.80;5.72;;;12.20;90.20;;;;;;5013144;28;20108;-69
2021/04/12 00:46:37;;;;;;;19.75;5.75;;;12.30;90.10;;;;;;5013392;28;20028;-68
2021/04/12 00:49:31;;;;;;;28.77;6.72;;;12.30;90.20;;;;;;5013162;28;20018;-69
2021/04/12 00:52:04;;;;;;;19.70;6.72;;;12.30;90.20;;;;;;5013283;28;20034;-69
2021/04/12 00:55:06;;;;;;;17.20;6.85;;;12.30;90.20;;;;;;5013042;28;20499;-69
2021/04/12 00:57:44;;;;;;;15.82;6.18;;;12.30;90.10;;;;;;5012057;28;20038;-72
2021/04/12 01:00:35;;;;;;;19.75;6.63;;;12.30;90.10;;;;;;5010333;28;20108;-69
2021/04/12 01:03:28;;;;;;;17.80;6.07;;;12.30;90.10;;;;;;5008147;28;20034;-69
2021/04/12 01:05:57;;;;;;;;;;;12.30;90.10;;;;;;5012439;28;20045;-69
2021/04/12 01:08:42;;;;;;;19.10;6.40;;;12.30;90.00;;;;;;5012777;28;19999;-68
2021/04/12 01:11:19;;;;;;;16.00;6.68;;;12.30;90.00;;;;;;5013123;28;20022;-68
2021/04/12 01:14:03;;;;;;;18.67;6.82;;;12.30;89.90;;;;;;5012936;28;20026;-68
2021/04/12 01:17:06;;;;;;;17.95;6.47;;;12.40;89.80;;;;;;5013030;28;20420;-69
2021/04/12 01:20:29;;;;;;;16.65;6.07;;;12.40;89.60;;;;;;5012894;28;20471;-68
2021/04/12 01:23:28;;;;;;;13.30;6.13;;;12.30;89.50;;;;;;5010992;28;20061;-69
2021/04/12 01:26:13;;;;;;;21.63;6.30;;;12.40;89.70;;;;;;5010795;28;20038;-68
2021/04/12 01:28:58;;;;;;;17.83;7.20;;;12.40;90.00;;;;;;5012190;28;20042;-69
2021/04/12 01:31:39;;;;;;;18.08;6.22;;;12.40;89.90;;;;;;5012901;28;20030;-69
2021/04/12 01:34:41;;;;;;;22.55;6.70;;;12.40;89.80;;;;;;5012827;28;20026;-69
2021/04/12 01:37:28;;;;;;;13.80;6.82;;;12.30;90.00;;;;;;5012625;28;20124;-69
2021/04/12 01:40:23;;;;;;;16.08;6.45;;;12.30;90.00;;;;;;5012653;28;20367;-69
2021/04/12 01:43:07;;;;;;;14.32;6.28;;;12.30;89.90;;;;;;5013080;28;20018;-69
2021/04/12 01:45:55;;;;;;;16.38;6.07;;;12.30;89.70;;;;;;5012428;28;20041;-68
2021/04/12 01:48:40;;;;;;;14.75;5.80;;;12.30;90.20;;;;;;5012771;28;20021;-69
2021/04/12 01:51:17;;;;;;;15.90;6.70;;;12.40;90.20;;;;;;5012445;28;20077;-68
2021/04/12 01:54:15;;;;;;;23.92;6.57;;;12.40;89.90;;;;;;5027788;28;20042;-69
2021/04/12 01:57:31;;;;;;;21.58;6.85;;;12.30;89.60;;;;;;5030645;28;20022;-69
2021/04/12 02:00:24;;;;;;;17.10;6.82;;;12.40;89.80;;;;;;4971514;28;20169;-68
2021/04/12 02:03:14;;;;;;;18.42;6.53;;;12.40;89.50;;;;;;5015043;28;20088;-69
2021/04/12 02:06:01;;;;;;;18.27;7.38;;;12.40;89.40;;;;;;5016086;28;20026;-69
2021/04/12 02:08:56;;;;;;;12.73;5.82;;;12.40;89.50;;;;;;5016214;28;20478;-69
2021/04/12 02:11:34;;;;;;;17.92;6.07;;;12.40;89.50;;;;;;5017945;28;20471;-69
2021/04/12 02:14:03;;;;;;;20.35;6.90;;;12.40;89.40;;;;;;5035785;28;20033;-70
2021/04/12 02:17:06;;;;;;;22.63;7.22;;;12.40;89.40;;;;;;5035947;28;20035;-69
2021/04/12 02:19:40;;;;;;;16.63;6.72;;;12.40;89.30;;;;;;5035895;28;20100;-69
2021/04/12 02:22:51;;;;;;;15.63;6.65;;;12.40;89.50;;;;;;5035771;28;20030;-69
2021/04/12 02:25:35;;;;;;;17.42;7.03;;;12.40;89.40;;;;;;5035537;28;20025;-69
2021/04/12 02:28:18;;;;;;;22.38;7.15;;;12.40;89.50;;;;;;5035488;28;20030;-69
2021/04/12 02:31:28;;;;;;;15.63;6.68;;;12.40;89.80;;;;;;5035529;28;20036;-69
2021/04/12 02:33:59;;;;;;;10.98;5.78;;;12.40;89.90;;;;;;4981664;28;20114;-70
2021/04/12 02:36:45;;;;;;;14.98;7.15;;;12.40;89.90;;;;;;5035498;28;20091;-69
2021/04/12 02:39:34;;;;;;;19.40;6.70;;;12.40;90.00;;;;;;5035190;28;20032;-69
2021/04/12 02:42:02;;;;;;;16.30;6.40;;;12.40;89.50;;;;;;5005272;28;20042;-69
2021/04/12 02:44:50;;;;;;;19.77;6.70;;;12.40;89.50;;;;;;5035080;28;20029;-69
2021/04/12 02:47:35;;;;;;;24.98;8.65;;;12.40;89.50;;;;;;5035492;28;20025;-69
2021/04/12 02:50:32;;;;;;;17.27;6.32;;;12.40;89.80;;;;;;5035061;28;20486;-69
2021/04/12 02:53:30;;;;;;;16.08;6.63;;;12.40;89.90;;;;;;5029711;28;20042;-69
2021/04/12 02:56:16;;;;;;;17.95;7.63;;;12.40;89.80;;;;;;5034898;28;20018;-69
2021/04/12 02:59:01;;;;;;;15.38;7.50;;;12.50;89.80;;;;;;5034904;28;20030;-69
2021/04/12 03:01:49;;;;;;;17.58;7.25;;;12.40;89.70;;;;;;5035081;28;20034;-69
2021/04/12 03:04:42;;;;;;;18.17;7.72;;;12.40;89.80;;;;;;5035309;28;20028;-69
2021/04/12 03:07:41;;;;;;;15.88;7.38;;;12.50;90.00;;;;;;5035002;28;20025;-70
2021/04/12 03:10:16;;;;;;;15.10;6.65;;;12.50;90.00;;;;;;5034670;28;20040;-69
2021/04/12 03:12:45;;;;;;;21.52;7.82;;;12.40;89.90;;;;;;5033770;28;20026;-69
2021/04/12 03:15:32;;;;;;;18.65;7.97;;;12.40;89.80;;;;;;5035040;28;20124;-69
2021/04/12 03:18:16;;;;;;;16.83;7.10;;;12.40;89.90;;;;;;5034550;28;20041;-70
2021/04/12 03:20:52;;;;;;;18.30;7.75;;;12.50;90.00;;;;;;5034558;28;20034;-69
2021/04/12 03:23:59;;;;;;;15.20;6.35;;;12.40;90.20;;;;;;5034695;28;20025;-68
2021/04/12 03:27:03;;;;;;;18.13;7.22;;;12.40;90.40;;;;;;5020018;28;20068;-76
2021/04/12 03:30:00;;;;;;;12.98;5.78;;;12.40;90.40;;;;;;5033068;28;20026;-69
2021/04/12 03:33:03;;;;;;;14.68;4.72;;;12.40;90.40;;;;;;5026114;28;20056;-69
2021/04/12 03:36:00;;;;;;;94.70;44.38;;;12.40;90.20;;;;;;5032193;28;20068;-70
2021/04/12 03:39:00;;;;;;;13.93;7.63;;;12.40;90.50;;;;;;5034178;28;20080;-69
2021/04/12 03:41:47;;;;;;;19.60;6.97;;;12.40;90.50;;;;;;5034377;28;20029;-72
2021/04/12 03:44:40;;;;;;;14.00;6.43;;;12.40;90.80;;;;;;5034277;28;20022;-69
2021/04/12 03:47:23;;;;;;;16.00;6.13;;;12.40;90.60;;;;;;5034402;28;20057;-69
2021/04/12 03:50:13;;;;;;;14.20;5.53;;;12.40;90.80;;;;;;5033920;28;20108;-69
2021/04/12 03:53:16;;;;;;;15.27;5.30;;;12.40;90.70;;;;;;5033954;28;20075;-69
2021/04/12 03:55:47;;;;;;;16.92;5.28;;;12.40;90.70;;;;;;5033137;28;20500;-70
2021/04/12 03:58:31;;;;;;;9.48;4.75;;;12.30;90.70;;;;;;5033751;28;20088;-69
2021/04/12 04:01:31;;;;;;;12.88;4.70;;;12.30;90.60;;;;;;5033745;28;20026;-69
2021/04/12 04:04:21;;;;;;;13.15;4.75;;;12.40;90.40;;;;;;5017787;28;20555;-69
2021/04/12 04:07:14;;;;;;;15.70;4.45;;;12.40;90.10;;;;;;5033743;28;20066;-69
2021/04/12 04:10:06;;;;;;;;;;;12.40;90.10;;;;;;5032857;28;20029;-69
2021/04/12 04:13:02;;;;;;;13.98;4.28;;;12.40;90.10;;;;;;5010102;28;19904;-78
2021/04/12 04:15:43;;;;;;;11.73;4.40;;;12.40;90.10;;;;;;5033486;28;20040;-69
2021/04/12 04:18:34;;;;;;;13.90;4.43;;;12.40;90.20;;;;;;5033427;28;20091;-69
2021/04/12 04:21:24;;;;;;;14.55;4.45;;;12.40;90.40;;;;;;5033359;28;20025;-69
2021/04/12 04:24:23;;;;;;;12.65;4.72;;;12.40;90.40;;;;;;5033248;28;20037;-69
2021/04/12 04:27:24;;;;;;;11.90;5.13;;;12.40;90.30;;;;;;5033211;28;20029;-69
2021/04/12 04:30:04;;;;;;;15.43;5.07;;;12.40;90.60;;;;;;4999625;28;20502;-69
2021/04/12 04:32:36;;;;;;;18.25;5.47;;;12.40;90.20;;;;;;5033281;28;20029;-69
2021/04/12 04:35:24;;;;;;;17.73;4.97;;;12.40;90.20;;;;;;5033357;28;20100;-69
2021/04/12 04:38:32;;;;;;;14.55;5.30;;;12.40;90.20;;;;;;5033132;28;20072;-69
2021/04/12 04:41:30;;;;;;;12.40;4.78;;;12.40;90.10;;;;;;5033075;28;20021;-69
2021/04/12 04:44:01;;;;;;;15.90;4.55;;;12.40;90.00;;;;;;5033004;28;20044;-69
2021/04/12 04:46:55;;;;;;;13.75;4.43;;;12.40;90.00;;;;;;5033204;28;20025;-69
2021/04/12 04:50:11;;;;;;;13.00;4.18;;;12.40;89.80;;;;;;5032729;28;20026;-69
2021/04/12 04:53:01;;;;;;;14.68;4.20;;;12.40;89.60;;;;;;4972352;28;20476;-78
2021/04/12 04:55:47;;;;;;;14.60;4.30;;;12.40;89.80;;;;;;5030496;28;20100;-70
2021/04/12 04:58:43;;;;;;;14.52;4.00;;;12.40;89.80;;;;;;5032986;28;20045;-69
2021/04/12 05:01:15;;;;;;;14.57;4.57;;;12.40;90.00;;;;;;5032669;28;20497;-69
2021/04/12 05:03:46;;;;;;;14.48;4.60;;;12.40;90.00;;;;;;5032904;28;20472;-69
2021/04/12 05:06:21;;;;;;;13.95;4.47;;;12.40;90.10;;;;;;5032841;28;20026;-69
2021/04/12 05:09:08;;;;;;;12.90;4.65;;;12.40;90.10;;;;;;5032789;28;20470;-69
2021/04/12 05:11:57;;;;;;;11.13;4.80;;;12.40;90.10;;;;;;5033082;28;20025;-69
2021/04/12 05:14:51;;;;;;;21.13;6.13;;;12.40;90.60;;;;;;5032602;28;20044;-69
2021/04/12 05:17:44;;;;;;;12.63;5.05;;;12.40;90.30;;;;;;5032695;28;20433;-78
2021/04/12 05:20:21;;;;;;;16.73;5.72;;;12.40;90.40;;;;;;5032786;28;20029;-69
2021/04/12 05:23:12;;;;;;;12.27;5.28;;;12.30;90.40;;;;;;5032870;28;20033;-69
2021/04/12 05:25:47;;;;;;;10.63;5.05;;;12.40;90.30;;;;;;5032787;28;20379;-70
2021/04/12 05:28:19;;;;;;;12.93;4.60;;;12.40;90.30;;;;;;5032629;28;20470;-69
2021/04/12 05:30:56;;;;;;;14.38;4.68;;;12.40;90.20;;;;;;5032722;28;20022;-69
2021/04/12 05:33:24;;;;;;;7.78;4.00;;;12.40;90.10;;;;;;5032723;28;20028;-69
2021/04/12 05:35:56;;;;;;;11.70;4.38;;;12.40;90.20;;;;;;5033165;28;20429;-70
2021/04/12 05:38:25;;;;;;;9.68;3.50;;;12.50;90.10;;;;;;5036424;28;20405;-78
2021/04/12 05:41:14;;;;;;;11.60;4.72;;;12.40;90.00;;;;;;5036506;28;20021;-69
2021/04/12 05:43:59;;;;;;;10.52;4.07;;;12.40;90.00;;;;;;5037005;28;20025;-78
2021/04/12 05:46:40;;;;;;;10.23;3.75;;;12.40;90.00;;;;;;5035080;28;20033;-69
2021/04/12 05:49:24;;;;;;;12.05;4.35;;;12.50;90.00;;;;;;5036203;28;20026;-77
2021/04/12 05:52:27;;;;;;;11.43;2.95;;;12.50;90.00;;;;;;5036199;28;20033;-70
2021/04/12 05:55:09;;;;;;;14.05;4.30;;;12.50;90.00;;;;;;5035922;28;20029;-78
2021/04/12 05:57:59;;;;;;;11.55;3.90;;;12.50;90.00;;;;;;5035550;28;20028;-69
2021/04/12 06:00:27;;;;;;;10.45;4.50;;;12.40;90.00;;;;;;5032664;28;20036;-69
2021/04/12 06:03:46;;;;;;;12.80;4.28;;;12.40;90.00;;;;;;5034690;28;20029;-69
2021/04/12 06:07:01;;;;;;;12.30;4.93;;;12.40;90.10;;;;;;4971839;28;20031;-69
2021/04/12 06:09:56;;;;;;;16.98;5.15;;;12.40;90.20;;;;;;5021521;28;20043;-72
2021/04/12 06:13:15;;;;;;;11.07;4.68;;;12.40;90.10;;;;;;5026429;28;20028;-69
2021/04/12 06:15:50;;;;;;;11.27;4.88;;;12.40;90.30;;;;;;4983636;28;20030;-71
2021/04/12 06:18:34;;;;;;;15.50;4.97;;;12.40;90.20;;;;;;5038445;28;20136;-72
2021/04/12 06:21:30;;;;;;;10.05;3.95;;;12.40;90.20;;;;;;5030949;28;20573;-71
2021/04/12 06:24:50;;;;;;;12.68;4.50;;;12.40;90.20;;;;;;5034453;28;20025;-70
2021/04/12 06:27:37;;;;;;;11.45;4.80;;;12.40;90.30;;;;;;4993400;28;20022;-76
2021/04/12 06:30:42;;;;;;;11.65;4.32;;;12.40;90.50;;;;;;5031243;28;20061;-68
2021/04/12 06:33:40;;;;;;;13.57;4.22;;;12.40;90.50;;;;;;5012564;28;20394;-68
2021/04/12 06:36:14;;;;;;;9.13;4.10;;;12.40;90.50;;;;;;5035234;28;20025;-70
2021/04/12 06:38:55;;;;;;;16.67;5.20;;;12.40;90.40;;;;;;5034974;28;20119;-67
2021/04/12 06:41:48;;;;;;;9.70;4.10;;;12.40;90.60;;;;;;5035245;28;20021;-68
2021/04/12 06:45:00;;;;;;;10.82;3.78;;;12.40;90.60;;;;;;5026486;28;20030;-68
2021/04/12 06:48:14;;;;;;;12.35;4.28;;;12.40;90.70;;;;;;5011233;28;20364;-68
2021/04/12 06:51:24;;;;;;;13.32;4.65;;;12.40;90.60;;;;;;5013994;28;20041;-69
2021/04/12 06:54:22;;;;;;;10.13;3.83;;;12.40;90.60;;;;;;4968909;28;20101;-68
2021/04/12 06:57:24;;;;;;;8.38;3.90;;;12.40;90.80;;;;;;4966562;28;20031;-68
2021/04/12 07:00:14;;;;;;;10.43;3.35;;;12.40;90.80;;;;;;5025730;28;20120;-68
2021/04/12 07:03:10;;;;;;;12.55;3.85;;;12.40;90.60;;;;;;5030090;28;20485;-69
2021/04/12 07:05:36;;;;;;;10.85;3.83;;;12.40;90.70;;;;;;5028693;28;20517;-68
2021/04/12 07:08:16;;;;;;;10.00;3.92;;;12.40;90.60;;;;;;5033283;28;20029;-68
2021/04/12 07:11:28;;;;;;;11.23;3.50;;;12.40;90.70;;;;;;5033492;28;20033;-68
2021/04/12 07:13:57;;;;;;;7.18;3.60;;;12.40;90.60;;;;;;5030574;28;20037;-68
2021/04/12 07:16:43;;;;;;;8.35;3.33;;;12.40;90.70;;;;;;5034857;28;20075;-68
2021/04/12 07:19:47;;;;;;;8.70;3.63;;;12.40;90.50;;;;;;5034543;28;20565;-68
2021/04/12 07:22:34;;;;;;;6.90;3.15;;;12.40;90.60;;;;;;5034431;28;20603;-68
2021/04/12 07:25:24;;;;;;;8.60;3.05;;;12.40;90.50;;;;;;5034846;28;20026;-71
2021/04/12 07:28:20;;;;;;;5.72;2.53;;;12.40;90.60;;;;;;5034719;28;20017;-68
2021/04/12 07:31:00;;;;;;;6.50;3.40;;;12.40;90.70;;;;;;5034592;28;20029;-68
2021/04/12 07:33:41;;;;;;;7.72;2.97;;;12.40;90.60;;;;;;5034108;28;20057;-68
2021/04/12 07:36:25;;;;;;;6.60;2.90;;;12.40;90.60;;;;;;5034542;28;20036;-68
2021/04/12 07:39:12;;;;;;;6.78;2.90;;;12.40;90.70;;;;;;5034172;28;20069;-68
2021/04/12 07:42:15;;;;;;;6.35;2.55;;;12.40;90.70;;;;;;5033958;28;20104;-70
2021/04/12 07:45:33;;;;;;;5.55;2.47;;;12.40;90.50;;;;;;5032918;28;20021;-70
2021/04/12 07:48:16;;;;;;;4.97;2.80;;;12.40;90.40;;;;;;5013443;28;20033;-70
2021/04/12 07:50:51;;;;;;;6.65;3.00;;;12.40;90.50;;;;;;5032177;28;20095;-71
2021/04/12 07:54:05;;;;;;;5.40;2.38;;;12.40;90.50;;;;;;5033590;28;20478;-70
2021/04/12 07:56:49;;;;;;;6.43;2.60;;;12.40;90.40;;;;;;5034320;28;20033;-70
2021/04/12 07:59:17;;;;;;;5.72;2.42;;;12.40;90.40;;;;;;5033781;28;20033;-69
2021/04/12 08:02:25;;;;;;;10.07;2.97;;;12.50;90.40;;;;;;5033977;28;20025;-68
2021/04/12 08:05:12;;;;;;;5.47;2.33;;;12.50;90.30;;;;;;5014879;28;20030;-69
2021/04/12 08:08:17;;;;;;;6.18;2.70;;;12.50;90.30;;;;;;5033862;28;20506;-69
2021/04/12 08:11:13;;;;;;;8.50;3.08;;;12.50;90.30;;;;;;5033879;28;20021;-68
2021/04/12 08:13:57;;;;;;;7.50;2.63;;;12.50;90.40;;;;;;5033964;28;20037;-69
2021/04/12 08:16:52;;;;;;;7.30;3.10;;;12.50;90.40;;;;;;5033855;28;20026;-69
2021/04/12 08:19:55;;;;;;;6.43;2.65;;;12.50;90.40;;;;;;5029498;28;20085;-69
2021/04/12 08:22:24;;;;;;;8.63;2.53;;;12.50;90.40;;;;;;5033449;28;20509;-69
2021/04/12 08:25:08;;;;;;;5.80;2.95;;;12.50;90.30;;;;;;5032216;28;20021;-71
2021/04/12 08:28:08;;;;;;;6.35;3.28;;;12.60;90.30;;;;;;5045308;28;20489;-68
2021/04/12 08:30:55;;;;;;;5.55;2.72;;;12.60;90.30;;;;;;5032783;28;20033;-69
2021/04/12 08:33:33;;;;;;;7.35;2.47;;;12.50;90.40;;;;;;5022247;28;20045;-69
2021/04/12 08:36:36;;;;;;;4.40;2.80;;;12.50;90.60;;;;;;5025606;28;20486;-69
2021/04/12 08:39:20;;;;;;;;;;;12.50;90.40;;;;;;5033154;28;20040;-68
2021/04/12 08:42:20;;;;;;;5.10;2.60;;;12.50;90.30;;;;;;5032930;28;20255;-68
2021/04/12 08:45:04;;;;;;;8.70;2.80;;;12.50;90.30;;;;;;5033085;28;20030;-68
2021/04/12 08:47:32;;;;;;;7.28;3.25;;;12.50;90.40;;;;;;5032997;28;20017;-68
2021/04/12 08:50:16;;;;;;;6.32;2.97;;;12.50;90.40;;;;;;5032882;28;20072;-68
2021/04/12 08:53:19;;;;;;;6.55;3.38;;;12.50;90.40;;;;;;5032867;28;20036;-68
2021/04/12 08:55:54;;;;;;;;;;;12.50;90.30;;;;;;5033498;28;20112;-67
2021/04/12 08:58:39;;;;;;;5.18;2.50;;;12.50;90.50;;;;;;5032557;28;19967;-68
2021/04/12 09:01:19;;;;;;;4.90;2.53;;;12.50;90.30;;;;;;5032911;28;20033;-68
2021/04/12 09:04:04;;;;;;;5.57;2.38;;;12.60;90.30;;;;;;5032815;28;20080;-68
2021/04/12 09:06:57;;;;;;;3.35;2.15;;;12.60;90.30;;;;;;5033008;28;20030;-68
2021/04/12 09:09:43;;;;;;;;;;;12.60;90.30;;;;;;5031421;28;20029;-68
2021/04/12 09:12:38;;;;;;;6.03;2.42;;;12.60;90.20;;;;;;5033835;28;20012;-68
2021/04/12 09:15:34;;;;;;;4.65;1.90;;;12.60;90.30;;;;;;4996365;28;20046;-69
2021/04/12 09:18:19;;;;;;;2.83;1.63;;;12.60;90.40;;;;;;5035547;28;20034;-68
2021/04/12 09:21:18;;;;;;;5.30;1.67;;;12.60;90.30;;;;;;5035617;28;20026;-69
2021/04/12 09:24:04;;;;;;;3.75;1.70;;;12.60;90.30;;;;;;5034755;28;20433;-70
2021/04/12 09:26:49;;;;;;;3.35;2.00;;;12.50;90.40;;;;;;5036565;28;20079;-70
2021/04/12 09:29:36;;;;;;;3.50;1.80;;;12.50;90.40;;;;;;5035419;28;20048;-68
2021/04/12 09:32:29;;;;;;;3.55;1.92;;;12.50;90.50;;;;;;5036739;28;20029;-69
2021/04/12 09:35:07;;;;;;;4.35;2.10;;;12.40;90.60;;;;;;5036604;28;20378;-67
2021/04/12 09:38:03;;;;;;;2.35;1.77;;;12.50;90.50;;;;;;5036791;28;20036;-72
2021/04/12 09:41:06;;;;;;;4.35;1.70;;;12.50;90.60;;;;;;5036546;28;20521;-67
2021/04/12 09:43:53;;;;;;;4.32;1.60;;;12.50;90.50;;;;;;5036723;28;20022;-71
2021/04/12 09:46:22;;;;;;;2.78;1.45;;;12.50;90.40;;;;;;5051771;28;20434;-70
2021/04/12 09:49:28;;;;;;;2.38;1.38;;;12.50;90.40;;;;;;5034605;28;20025;-74
2021/04/12 09:52:15;;;;;;;3.42;1.48;;;12.50;90.40;;;;;;5035724;28;20045;-68
2021/04/12 09:54:59;;;;;;;3.47;1.42;;;12.50;90.30;;;;;;5025907;28;20017;-69
2021/04/12 09:58:02;;;;;;;3.22;1.60;;;12.50;90.30;;;;;;5030085;28;20030;-72
2021/04/12 10:00:39;;;;;;;2.22;1.60;;;12.50;90.30;;;;;;5035863;28;20021;-68
2021/04/12 10:03:23;;;;;;;6.65;1.70;;;12.40;90.20;;;;;;5034700;28;20030;-66
2021/04/12 10:06:04;;;;;;;6.45;1.80;;;12.50;90.40;;;;;;5032056;28;20025;-67
2021/04/12 10:08:52;;;;;;;2.55;1.52;;;12.40;90.10;;;;;;5026074;28;20018;-66
2021/04/12 10:11:23;;;;;;;4.90;1.70;;;12.40;90.10;;;;;;5026382;28;20052;-66
2021/04/12 10:14:31;;;;;;;5.60;1.95;;;12.50;90.10;;;;;;5034170;28;20033;-67
2021/04/12 10:17:10;;;;;;;3.85;2.00;;;12.40;90.00;;;;;;4993072;28;20113;-66
2021/04/12 10:19:59;;;;;;;4.88;2.10;;;12.50;90.00;;;;;;4992989;28;20045;-66
2021/04/12 10:22:43;;;;;;;5.82;2.22;;;12.40;90.30;;;;;;5021651;28;20041;-66
2021/04/12 10:25:18;;;;;;;4.82;2.25;;;12.50;89.90;;;;;;5035781;28;20032;-66
2021/04/12 10:27:48;;;;;;;4.05;1.75;;;12.50;90.00;;;;;;5035695;28;20466;-66
2021/04/12 10:30:44;;;;;;;4.00;2.15;;;12.50;90.00;;;;;;5035545;28;20108;-66
2021/04/12 10:33:20;;;;;;;5.07;2.20;;;12.50;90.00;;;;;;5014559;28;20540;-66
2021/04/12 10:36:05;;;;;;;5.72;2.70;;;12.50;90.00;;;;;;5035583;28;20100;-66
2021/04/12 10:38:39;;;;;;;4.22;2.25;;;12.50;90.10;;;;;;5035460;28;20044;-67
2021/04/12 10:41:23;;;;;;;4.15;2.22;;;12.50;90.10;;;;;;5035394;28;20076;-66
2021/04/12 10:44:07;;;;;;;6.32;2.40;;;12.50;90.10;;;;;;5035390;28;20475;-65
2021/04/12 10:46:53;;;;;;;3.42;1.80;;;12.50;90.20;;;;;;5035576;28;20033;-66
2021/04/12 10:49:34;;;;;;;4.32;2.00;;;12.50;90.10;;;;;;5035159;28;20029;-66
2021/04/12 10:52:18;;;;;;;5.43;2.10;;;12.50;90.00;;;;;;5035056;28;20053;-66
2021/04/12 10:55:22;;;;;;;7.63;2.10;;;12.50;90.10;;;;;;5035204;28;20061;-66
2021/04/12 10:58:25;;;;;;;4.68;2.10;;;12.50;90.00;;;;;;5022576;28;20068;-67
2021/04/12 11:01:13;;;;;;;4.25;2.03;;;12.40;89.90;;;;;;5034715;28;20020;-67
2021/04/12 11:04:04;;;;;;;3.85;1.75;;;12.40;90.00;;;;;;5034853;28;20082;-67
2021/04/12 11:06:43;;;;;;;5.63;2.20;;;12.40;90.00;;;;;;5034664;28;20069;-67
2021/04/12 11:09:28;;;;;;;3.38;1.88;;;12.40;90.10;;;;;;5034851;28;20029;-67
2021/04/12 11:12:09;;;;;;;6.90;2.05;;;12.40;90.20;;;;;;5034513;28;20014;-66
2021/04/12 11:14:56;;;;;;;3.33;1.95;;;12.50;90.20;;;;;;5034565;28;20032;-66
2021/04/12 11:17:44;;;;;;;3.55;1.58;;;12.40;90.20;;;;;;5034659;28;20117;-66
2021/04/12 11:20:31;;;;;;;4.65;1.98;;;12.50;90.10;;;;;;5034685;28;20029;-66
2021/04/12 11:23:16;;;;;;;3.00;1.88;;;12.50;90.10;;;;;;5034561;28;20030;-67
2021/04/12 11:26:24;;;;;;;4.65;1.85;;;12.50;90.10;;;;;;5034644;28;20036;-66
2021/04/12 11:29:00;;;;;;;4.05;2.13;;;12.50;90.10;;;;;;4995880;28;20035;-67
2021/04/12 11:31:34;;;;;;;7.15;1.75;;;12.50;90.10;;;;;;5014857;28;20064;-66
2021/04/12 11:34:21;;;;;;;4.95;1.70;;;12.50;90.10;;;;;;5013893;28;20030;-66
2021/04/12 11:37:10;;;;;;;3.03;1.45;;;12.50;90.20;;;;;;5019814;28;20028;-66
2021/04/12 11:39:39;;;;;;;5.38;1.98;;;12.50;90.10;;;;;;5024991;28;20036;-67
2021/04/12 11:42:10;;;;;;;3.35;1.50;;;12.50;90.20;;;;;;5026938;28;20024;-66
2021/04/12 11:44:38;;;;;;;3.78;1.50;;;12.50;90.10;;;;;;5023769;28;20054;-66
2021/04/12 11:47:06;;;;;;;4.32;2.28;;;12.50;90.40;;;;;;5022164;28;20020;-67
2021/04/12 11:50:21;;;;;;;4.55;1.70;;;12.50;90.30;;;;;;5033705;28;20115;-67
2021/04/12 11:52:57;;;;;;;4.20;1.55;;;12.50;90.20;;;;;;5033922;28;20044;-67
2021/04/12 11:55:29;;;;;;;2.78;1.42;;;12.50;90.20;;;;;;5032928;28;20048;-67
2021/04/12 11:58:17;;;;;;;4.30;2.00;;;12.50;90.10;;;;;;5033524;28;20393;-67
2021/04/12 12:01:10;;;;;;;3.00;1.45;;;12.60;90.10;;;;;;5033106;28;20079;-67
2021/04/12 12:04:00;;;;;;;4.55;1.70;;;12.60;90.20;;;;;;5032744;28;20571;-67
2021/04/12 12:06:47;;;;;;;3.88;1.77;;;12.60;90.20;;;;;;5031447;28;20017;-67
2021/04/12 12:09:24;;;;;;;3.10;1.50;;;12.60;90.20;;;;;;5029496;28;20026;-67
2021/04/12 12:12:09;;;;;;;4.70;2.03;;;12.60;90.20;;;;;;5033737;28;20025;-67
2021/04/12 12:14:53;;;;;;;5.00;1.65;;;12.70;90.20;;;;;;5032321;28;20018;-67
2021/04/12 12:17:26;;;;;;;3.17;1.35;;;12.70;90.20;;;;;;5032320;28;20032;-67
2021/04/12 12:19:54;;;;;;;;;;;12.70;90.30;;;;;;5032477;28;20071;-66
2021/04/12 12:22:40;;;;;;;5.20;1.40;;;12.70;90.40;;;;;;5032690;28;19909;-67
2021/04/12 12:25:24;;;;;;;2.97;1.55;;;12.70;90.30;;;;;;5030463;28;20033;-66
2021/04/12 12:28:02;;;;;;;3.40;1.92;;;12.80;90.30;;;;;;5031952;28;20031;-66
2021/04/12 12:30:31;;;;;;;4.28;1.63;;;12.70;90.30;;;;;;5030524;28;20029;-67
2021/04/12 12:33:16;;;;;;;4.97;1.73;;;12.70;90.30;;;;;;5030066;28;20033;-67
2021/04/12 12:35:44;;;;;;;3.65;1.92;;;12.80;90.30;;;;;;5026393;28;20538;-67
2021/04/12 12:38:09;;;;;;;5.35;2.00;;;12.80;90.30;;;;;;5025507;28;20085;-67
2021/04/12 12:40:43;;;;;;;3.55;1.70;;;12.80;90.20;;;;;;5026616;28;20025;-67
2021/04/12 12:43:17;;;;;;;6.05;1.27;;;12.80;90.30;;;;;;5027835;28;20035;-67
2021/04/12 12:45:43;;;;;;;2.47;1.60;;;12.80;90.30;;;;;;5028812;28;20025;-67
2021/04/12 12:48:23;;;;;;;5.20;1.42;;;12.80;90.20;;;;;;5033343;28;20120;-67
2021/04/12 12:50:54;;;;;;;3.95;1.77;;;12.80;90.10;;;;;;5032832;28;20080;-67
2021/04/12 12:53:28;;;;;;;4.13;1.70;;;12.80;90.00;;;;;;5033049;28;20493;-68
2021/04/12 12:55:58;;;;;;;5.15;2.10;;;12.80;90.00;;;;;;5032718;28;20021;-71
2021/04/12 12:58:27;;;;;;;4.75;2.20;;;12.80;90.10;;;;;;5032897;28;20037;-67
2021/04/12 13:00:56;;;;;;;4.00;2.25;;;12.80;90.10;;;;;;5025987;28;20025;-67
2021/04/12 13:03:32;;;;;;;3.63;1.80;;;12.80;90.20;;;;;;5029431;28;20064;-67
2021/04/12 13:06:12;;;;;;;4.70;2.20;;;12.80;90.10;;;;;;5029571;28;20057;-67
2021/04/12 13:08:52;;;;;;;5.60;2.25;;;12.70;90.20;;;;;;5031966;28;20100;-67
2021/04/12 13:11:42;;;;;;;9.40;2.30;;;12.70;90.10;;;;;;5029451;28;20501;-67
2021/04/12 13:14:28;;;;;;;4.40;2.70;;;12.80;90.20;;;;;;5028504;28;20025;-67
2021/04/12 13:16:56;;;;;;;13.73;6.22;;;12.80;90.20;;;;;;5025525;28;20112;-67
2021/04/12 13:19:22;;;;;;;34.38;18.98;;;12.80;90.20;;;;;;5018197;28;20457;-68
2021/04/12 13:21:54;;;;;;;33.22;17.90;;;12.80;90.20;;;;;;5032005;28;20030;-67
2021/04/12 13:24:26;;;;;;;27.85;15.57;;;12.80;90.30;;;;;;5029676;28;20052;-67
2021/04/12 13:26:59;;;;;;;;;;;12.90;90.30;;;;;;5029719;28;20022;-67
2021/04/12 13:29:28;;;;;;;15.60;8.52;;;12.90;90.30;;;;;;5014581;28;19909;-70
2021/04/12 13:32:13;;;;;;;16.52;10.32;;;12.90;90.10;;;;;;5020820;28;20037;-70
2021/04/12 13:35:11;;;;;;;13.80;8.57;;;12.90;90.20;;;;;;5026410;28;20064;-68
2021/04/12 13:37:45;;;;;;;10.48;6.63;;;12.90;90.20;;;;;;5008830;28;20555;-71
2021/04/12 13:40:34;;;;;;;6.07;4.47;;;12.90;90.10;;;;;;5012182;28;20505;-70
2021/04/12 13:43:05;;;;;;;12.48;4.90;;;12.90;90.10;;;;;;5015433;28;20429;-67
2021/04/12 13:45:38;;;;;;;8.82;4.85;;;12.90;90.10;;;;;;5032292;28;20093;-68
2021/04/12 13:48:17;;;;;;;9.63;4.68;;;12.90;90.30;;;;;;5032287;28;20542;-68
2021/04/12 13:50:49;;;;;;;8.48;3.95;;;12.90;90.20;;;;;;5032342;28;20506;-68
2021/04/12 13:53:23;;;;;;;16.27;4.20;;;12.90;90.20;;;;;;5014535;28;20014;-68
2021/04/12 13:56:10;;;;;;;8.63;3.55;;;12.90;90.20;;;;;;5032612;28;20033;-67
2021/04/12 13:58:40;;;;;;;8.35;3.40;;;12.90;90.30;;;;;;5033629;28;20042;-67
2021/04/12 14:01:24;;;;;;;11.35;3.65;;;12.80;90.60;;;;;;5035974;28;20032;-67
2021/04/12 14:04:05;;;;;;;11.55;4.38;;;12.80;90.90;;;;;;5016551;28;20076;-68
2021/04/12 14:07:01;;;;;;;13.85;4.55;;;12.80;91.30;;;;;;5022387;28;20026;-67
2021/04/12 14:09:35;;;;;;;9.05;4.32;;;12.80;91.30;;;;;;5037174;28;20026;-67
2021/04/12 14:12:07;;;;;;;16.60;6.75;;;12.80;91.20;;;;;;5023974;28;20026;-67
2021/04/12 14:14:41;;;;;;;14.18;7.00;;;12.80;91.20;;;;;;5025753;28;20028;-67
2021/04/12 14:17:39;;;;;;;7.53;4.80;;;12.80;91.20;;;;;;5035780;28;20030;-67
2021/04/12 14:20:36;;;;;;;63.92;44.17;;;12.80;90.80;;;;;;5035605;28;20034;-67
2021/04/12 14:23:26;;;;;;;22.00;14.55;;;12.80;90.80;;;;;;5034446;28;20029;-69